Aérodrome :
LOGIN :

S'inscrire | Disclaimer

   EN    FR    IT 

 










Légende :    VFR   VFR Marginal   IFR   IFR Intensif   IFR Très Intensif
Visi : 
Plafond : 
>= 8 km
>= 3000ft
5 à 8 km
1000 à 3000 ft
1500m à 5 km
500 à 1000 ft
800 à 1500m
200 à 500 ft
< 800m
< 200 ft
Symboles :   Orages  Brouillard  Fortes neiges  Fortes précipitations  Vent > 20 kt
SIGMETs :   Divers  Orages  Givrage  Turbulence  Onde Orograph.  Cendres Volcan.






- Altitude de l'aérodrome : 788 ft
- Code IATA : DCM


LFCK - Castres-Mazamet

DERNIER METAR :
  • 201000Z AUTO 29003KT CAVOK 10/05 Q1025 NOSIG

METARs EXPIRÉS :
  • 200930Z AUTO VRB02KT CAVOK 09/05 Q1025 NOSIG
  • 200900Z AUTO 28002KT CAVOK 07/04 Q1025 NOSIG
  • 200830Z AUTO 00000KT CAVOK 07/04 Q1025 NOSIG
  • 200800Z AUTO VRB01KT CAVOK 06/03 Q1025 NOSIG
  • 200730Z AUTO VRB02KT CAVOK 03/02 Q1025 NOSIG

TAF TAF LFCK
Valide du 20 à 09h jusqu'au 20 à 18h UTC


200800Z 2009/2018 VRB03KT CAVOK



MET'MAP, la Météo Aéronautique d'un coup d'oeil ! - Copyright ORBIFLY Décembre 2007 - Disclaimer

ORBIFLY MET'MAP TEAM :

Programmation & Développement : Alexandra Zaïnal
Sur une idée originale de : Baudouin d'Aumeries
Assistance à la programmation : Marc-Olivier Méhu
Soutien technique & logistique : Manuel Goepfert

Contact : metmap@orbifly.com




SOURCES & CREDITS :

   NOAA